sensor_id;sensor_type;location;lat;lon;timestamp;P1;durP1;ratioP1;P2;durP2;ratioP2
8371;SDS011;4223;48.724;8.982;2022-09-01T00:02:19;4.03;;;3.73;;
8371;SDS011;4223;48.724;8.982;2022-09-01T00:04:51;2.07;;;2.07;;
8371;SDS011;4223;48.724;8.982;2022-09-01T00:07:20;2.90;;;2.80;;
8371;SDS011;4223;48.724;8.982;2022-09-01T00:09:46;4.40;;;4.10;;
8371;SDS011;4223;48.724;8.982;2022-09-01T00:12:15;3.17;;;3.07;;
8371;SDS011;4223;48.724;8.982;2022-09-01T00:14:42;3.60;;;3.33;;
8371;SDS011;4223;48.724;8.982;2022-09-01T00:17:10;3.97;;;3.57;;
8371;SDS011;4223;48.724;8.982;2022-09-01T00:19:37;4.60;;;4.17;;
8371;SDS011;4223;48.724;8.982;2022-09-01T00:22:05;2.90;;;2.80;;
8371;SDS011;4223;48.724;8.982;2022-09-01T00:24:33;2.20;;;2.10;;
8371;SDS011;4223;48.724;8.982;2022-09-01T00:27:00;3.17;;;3.03;;
8371;SDS011;4223;48.724;8.982;2022-09-01T00:29:28;3.83;;;2.63;;
8371;SDS011;4223;48.724;8.982;2022-09-01T00:31:55;3.97;;;3.77;;
8371;SDS011;4223;48.724;8.982;2022-09-01T00:34:22;3.70;;;3.40;;
8371;SDS011;4223;48.724;8.982;2022-09-01T00:36:49;2.77;;;2.67;;
8371;SDS011;4223;48.724;8.982;2022-09-01T00:39:16;3.17;;;3.00;;
8371;SDS011;4223;48.724;8.982;2022-09-01T00:41:43;2.73;;;2.60;;
8371;SDS011;4223;48.724;8.982;2022-09-01T00:44:12;5.67;;;3.27;;
8371;SDS011;4223;48.724;8.982;2022-09-01T00:46:44;4.07;;;3.80;;
8371;SDS011;4223;48.724;8.982;2022-09-01T00:49:15;3.53;;;3.33;;
8371;SDS011;4223;48.724;8.982;2022-09-01T00:51:45;3.47;;;3.30;;
8371;SDS011;4223;48.724;8.982;2022-09-01T00:54:15;3.73;;;3.60;;
8371;SDS011;4223;48.724;8.982;2022-09-01T00:56:46;3.70;;;3.37;;
8371;SDS011;4223;48.724;8.982;2022-09-01T00:59:14;2.90;;;2.80;;
8371;SDS011;4223;48.724;8.982;2022-09-01T01:01:43;4.10;;;3.90;;
8371;SDS011;4223;48.724;8.982;2022-09-01T01:04:10;3.13;;;2.97;;
8371;SDS011;4223;48.724;8.982;2022-09-01T01:06:39;3.60;;;3.40;;
8371;SDS011;4223;48.724;8.982;2022-09-01T01:09:07;4.33;;;4.13;;
8371;SDS011;4223;48.724;8.982;2022-09-01T01:11:34;4.30;;;4.10;;
8371;SDS011;4223;48.724;8.982;2022-09-01T01:14:03;4.10;;;3.70;;
8371;SDS011;4223;48.724;8.982;2022-09-01T01:16:34;5.47;;;5.10;;
8371;SDS011;4223;48.724;8.982;2022-09-01T01:19:03;4.43;;;4.13;;
8371;SDS011;4223;48.724;8.982;2022-09-01T01:21:33;4.60;;;4.37;;
8371;SDS011;4223;48.724;8.982;2022-09-01T01:24:23;4.87;;;4.57;;
8371;SDS011;4223;48.724;8.982;2022-09-01T01:26:51;14.53;;;4.63;;
8371;SDS011;4223;48.724;8.982;2022-09-01T01:29:19;6.30;;;4.30;;
8371;SDS011;4223;48.724;8.982;2022-09-01T01:31:46;4.53;;;4.33;;
8371;SDS011;4223;48.724;8.982;2022-09-01T01:34:18;3.57;;;3.47;;
8371;SDS011;4223;48.724;8.982;2022-09-01T01:36:45;4.70;;;4.43;;
8371;SDS011;4223;48.724;8.982;2022-09-01T01:39:14;7.67;;;3.30;;
8371;SDS011;4223;48.724;8.982;2022-09-01T01:41:45;5.67;;;5.13;;
8371;SDS011;4223;48.724;8.982;2022-09-01T01:44:13;3.73;;;3.63;;
8371;SDS011;4223;48.724;8.982;2022-09-01T01:46:44;7.63;;;3.93;;
8371;SDS011;4223;48.724;8.982;2022-09-01T01:49:14;3.87;;;3.67;;
8371;SDS011;4223;48.724;8.982;2022-09-01T01:51:44;3.93;;;3.73;;
8371;SDS011;4223;48.724;8.982;2022-09-01T01:54:12;4.43;;;4.13;;
8371;SDS011;4223;48.724;8.982;2022-09-01T01:56:45;5.77;;;5.27;;
8371;SDS011;4223;48.724;8.982;2022-09-01T01:59:12;4.23;;;3.93;;
8371;SDS011;4223;48.724;8.982;2022-09-01T02:01:41;5.97;;;5.60;;
8371;SDS011;4223;48.724;8.982;2022-09-01T02:04:15;5.80;;;3.30;;
8371;SDS011;4223;48.724;8.982;2022-09-01T02:06:44;4.60;;;4.33;;
8371;SDS011;4223;48.724;8.982;2022-09-01T02:09:12;3.20;;;3.10;;
8371;SDS011;4223;48.724;8.982;2022-09-01T02:11:40;3.40;;;3.23;;
8371;SDS011;4223;48.724;8.982;2022-09-01T02:14:10;3.40;;;3.30;;
8371;SDS011;4223;48.724;8.982;2022-09-01T02:16:39;5.47;;;5.13;;
8371;SDS011;4223;48.724;8.982;2022-09-01T02:19:07;3.67;;;3.50;;
8371;SDS011;4223;48.724;8.982;2022-09-01T02:21:36;6.37;;;5.87;;
8371;SDS011;4223;48.724;8.982;2022-09-01T02:24:08;5.37;;;4.93;;
8371;SDS011;4223;48.724;8.982;2022-09-01T02:26:36;5.20;;;4.80;;
8371;SDS011;4223;48.724;8.982;2022-09-01T02:29:07;4.37;;;4.13;;
8371;SDS011;4223;48.724;8.982;2022-09-01T02:31:42;4.40;;;4.10;;
8371;SDS011;4223;48.724;8.982;2022-09-01T02:34:09;3.93;;;3.63;;
8371;SDS011;4223;48.724;8.982;2022-09-01T02:36:38;3.77;;;3.57;;
8371;SDS011;4223;48.724;8.982;2022-09-01T02:39:11;4.37;;;4.17;;
8371;SDS011;4223;48.724;8.982;2022-09-01T02:41:39;5.03;;;4.63;;
8371;SDS011;4223;48.724;8.982;2022-09-01T02:44:05;3.87;;;3.67;;
8371;SDS011;4223;48.724;8.982;2022-09-01T02:46:37;3.90;;;3.00;;
8371;SDS011;4223;48.724;8.982;2022-09-01T02:49:07;4.17;;;3.93;;
8371;SDS011;4223;48.724;8.982;2022-09-01T02:51:39;4.00;;;3.57;;
8371;SDS011;4223;48.724;8.982;2022-09-01T02:54:06;5.43;;;5.07;;
8371;SDS011;4223;48.724;8.982;2022-09-01T02:56:33;5.13;;;4.77;;
8371;SDS011;4223;48.724;8.982;2022-09-01T02:59:00;4.20;;;3.90;;
8371;SDS011;4223;48.724;8.982;2022-09-01T03:01:29;3.83;;;3.63;;
8371;SDS011;4223;48.724;8.982;2022-09-01T03:03:59;3.37;;;3.27;;
8371;SDS011;4223;48.724;8.982;2022-09-01T03:06:29;3.67;;;3.37;;
8371;SDS011;4223;48.724;8.982;2022-09-01T03:08:58;4.63;;;4.23;;
8371;SDS011;4223;48.724;8.982;2022-09-01T03:11:26;4.70;;;4.33;;
8371;SDS011;4223;48.724;8.982;2022-09-01T03:13:54;4.30;;;4.10;;
8371;SDS011;4223;48.724;8.982;2022-09-01T03:16:21;5.57;;;4.40;;
8371;SDS011;4223;48.724;8.982;2022-09-01T03:18:48;3.70;;;3.50;;
8371;SDS011;4223;48.724;8.982;2022-09-01T03:21:16;3.37;;;3.20;;
8371;SDS011;4223;48.724;8.982;2022-09-01T03:23:44;3.67;;;3.47;;
8371;SDS011;4223;48.724;8.982;2022-09-01T03:26:13;4.23;;;4.00;;
8371;SDS011;4223;48.724;8.982;2022-09-01T03:28:42;4.33;;;4.03;;
8371;SDS011;4223;48.724;8.982;2022-09-01T03:31:09;5.10;;;4.80;;
8371;SDS011;4223;48.724;8.982;2022-09-01T03:33:37;3.23;;;3.13;;
8371;SDS011;4223;48.724;8.982;2022-09-01T03:36:04;3.27;;;3.07;;
8371;SDS011;4223;48.724;8.982;2022-09-01T03:38:33;6.33;;;4.10;;
8371;SDS011;4223;48.724;8.982;2022-09-01T03:41:01;4.27;;;4.07;;
8371;SDS011;4223;48.724;8.982;2022-09-01T03:43:30;3.83;;;3.67;;
8371;SDS011;4223;48.724;8.982;2022-09-01T03:45:58;4.63;;;4.43;;
8371;SDS011;4223;48.724;8.982;2022-09-01T03:48:26;6.10;;;5.43;;
8371;SDS011;4223;48.724;8.982;2022-09-01T03:50:56;6.50;;;5.70;;
8371;SDS011;4223;48.724;8.982;2022-09-01T03:53:27;3.87;;;3.67;;
8371;SDS011;4223;48.724;8.982;2022-09-01T03:55:57;3.77;;;3.57;;
8371;SDS011;4223;48.724;8.982;2022-09-01T03:58:24;7.87;;;4.27;;
8371;SDS011;4223;48.724;8.982;2022-09-01T04:00:53;4.00;;;3.90;;
8371;SDS011;4223;48.724;8.982;2022-09-01T04:03:21;3.37;;;3.17;;
8371;SDS011;4223;48.724;8.982;2022-09-01T04:05:50;5.83;;;5.53;;
8371;SDS011;4223;48.724;8.982;2022-09-01T04:08:19;5.53;;;5.10;;
8371;SDS011;4223;48.724;8.982;2022-09-01T04:10:50;3.93;;;3.70;;
8371;SDS011;4223;48.724;8.982;2022-09-01T04:13:20;5.40;;;5.00;;
8371;SDS011;4223;48.724;8.982;2022-09-01T04:15:50;3.93;;;3.73;;
8371;SDS011;4223;48.724;8.982;2022-09-01T04:18:17;6.93;;;3.77;;
8371;SDS011;4223;48.724;8.982;2022-09-01T04:20:48;6.23;;;5.83;;
8371;SDS011;4223;48.724;8.982;2022-09-01T04:23:16;3.43;;;3.23;;
8371;SDS011;4223;48.724;8.982;2022-09-01T04:25:50;4.97;;;4.67;;
8371;SDS011;4223;48.724;8.982;2022-09-01T04:28:21;3.10;;;3.00;;
8371;SDS011;4223;48.724;8.982;2022-09-01T04:30:52;10.20;;;4.87;;
8371;SDS011;4223;48.724;8.982;2022-09-01T04:33:21;3.20;;;3.00;;
8371;SDS011;4223;48.724;8.982;2022-09-01T04:35:49;3.07;;;2.97;;
8371;SDS011;4223;48.724;8.982;2022-09-01T04:38:20;2.37;;;2.30;;
8371;SDS011;4223;48.724;8.982;2022-09-01T04:40:49;3.60;;;3.40;;
8371;SDS011;4223;48.724;8.982;2022-09-01T04:43:16;3.47;;;3.33;;
8371;SDS011;4223;48.724;8.982;2022-09-01T04:45:46;4.70;;;4.33;;
8371;SDS011;4223;48.724;8.982;2022-09-01T04:48:16;4.17;;;3.93;;
8371;SDS011;4223;48.724;8.982;2022-09-01T04:50:43;4.37;;;4.03;;
8371;SDS011;4223;48.724;8.982;2022-09-01T04:53:11;3.50;;;3.37;;
8371;SDS011;4223;48.724;8.982;2022-09-01T04:55:38;4.30;;;4.00;;
8371;SDS011;4223;48.724;8.982;2022-09-01T04:58:07;4.17;;;3.77;;
8371;SDS011;4223;48.724;8.982;2022-09-01T05:00:38;5.57;;;4.40;;
8371;SDS011;4223;48.724;8.982;2022-09-01T05:03:07;4.67;;;3.47;;
8371;SDS011;4223;48.724;8.982;2022-09-01T05:05:35;8.23;;;4.70;;
8371;SDS011;4223;48.724;8.982;2022-09-01T05:08:06;4.77;;;4.37;;
8371;SDS011;4223;48.724;8.982;2022-09-01T05:10:38;4.97;;;4.77;;
8371;SDS011;4223;48.724;8.982;2022-09-01T05:13:08;4.13;;;3.93;;
8371;SDS011;4223;48.724;8.982;2022-09-01T05:15:36;4.80;;;4.43;;
8371;SDS011;4223;48.724;8.982;2022-09-01T05:18:11;3.30;;;3.20;;
8371;SDS011;4223;48.724;8.982;2022-09-01T05:20:40;3.50;;;3.37;;
8371;SDS011;4223;48.724;8.982;2022-09-01T05:23:08;7.10;;;6.57;;
8371;SDS011;4223;48.724;8.982;2022-09-01T05:25:38;5.90;;;4.33;;
8371;SDS011;4223;48.724;8.982;2022-09-01T05:28:08;5.67;;;4.73;;
8371;SDS011;4223;48.724;8.982;2022-09-01T05:30:36;3.87;;;3.67;;
8371;SDS011;4223;48.724;8.982;2022-09-01T05:33:04;6.13;;;4.33;;
8371;SDS011;4223;48.724;8.982;2022-09-01T05:35:38;3.60;;;3.43;;
8371;SDS011;4223;48.724;8.982;2022-09-01T05:38:10;4.70;;;4.47;;
8371;SDS011;4223;48.724;8.982;2022-09-01T05:40:39;6.50;;;6.03;;
8371;SDS011;4223;48.724;8.982;2022-09-01T05:43:07;7.53;;;5.33;;
8371;SDS011;4223;48.724;8.982;2022-09-01T05:45:37;6.37;;;5.73;;
8371;SDS011;4223;48.724;8.982;2022-09-01T05:48:06;4.87;;;4.43;;
8371;SDS011;4223;48.724;8.982;2022-09-01T05:50:34;3.93;;;3.70;;
8371;SDS011;4223;48.724;8.982;2022-09-01T05:53:03;4.23;;;4.03;;
8371;SDS011;4223;48.724;8.982;2022-09-01T05:55:35;4.50;;;4.20;;
8371;SDS011;4223;48.724;8.982;2022-09-01T05:58:02;23.30;;;4.17;;
8371;SDS011;4223;48.724;8.982;2022-09-01T06:00:29;6.77;;;6.30;;
8371;SDS011;4223;48.724;8.982;2022-09-01T06:02:58;3.17;;;3.07;;
8371;SDS011;4223;48.724;8.982;2022-09-01T06:05:28;4.03;;;3.83;;
8371;SDS011;4223;48.724;8.982;2022-09-01T06:07:56;5.40;;;5.10;;
8371;SDS011;4223;48.724;8.982;2022-09-01T06:10:24;5.10;;;4.80;;
8371;SDS011;4223;48.724;8.982;2022-09-01T06:12:52;5.00;;;4.60;;
8371;SDS011;4223;48.724;8.982;2022-09-01T06:15:19;5.47;;;5.07;;
8371;SDS011;4223;48.724;8.982;2022-09-01T06:17:46;4.60;;;4.40;;
8371;SDS011;4223;48.724;8.982;2022-09-01T06:20:13;5.57;;;5.27;;
8371;SDS011;4223;48.724;8.982;2022-09-01T06:22:42;4.50;;;4.20;;
8371;SDS011;4223;48.724;8.982;2022-09-01T06:25:09;3.50;;;3.40;;
8371;SDS011;4223;48.724;8.982;2022-09-01T06:27:38;3.03;;;2.83;;
8371;SDS011;4223;48.724;8.982;2022-09-01T06:30:08;5.53;;;5.13;;
8371;SDS011;4223;48.724;8.982;2022-09-01T06:32:40;6.23;;;5.63;;
8371;SDS011;4223;48.724;8.982;2022-09-01T06:35:08;6.37;;;5.77;;
8371;SDS011;4223;48.724;8.982;2022-09-01T06:37:37;6.40;;;4.10;;
8371;SDS011;4223;48.724;8.982;2022-09-01T06:40:04;5.87;;;4.40;;
8371;SDS011;4223;48.724;8.982;2022-09-01T06:42:34;6.53;;;6.03;;
8371;SDS011;4223;48.724;8.982;2022-09-01T06:45:03;4.57;;;4.43;;
8371;SDS011;4223;48.724;8.982;2022-09-01T06:47:34;4.67;;;4.40;;
8371;SDS011;4223;48.724;8.982;2022-09-01T06:50:01;5.10;;;4.70;;
8371;SDS011;4223;48.724;8.982;2022-09-01T06:52:28;4.30;;;4.00;;
8371;SDS011;4223;48.724;8.982;2022-09-01T06:54:55;4.93;;;4.57;;
8371;SDS011;4223;48.724;8.982;2022-09-01T06:57:21;4.00;;;3.80;;
8371;SDS011;4223;48.724;8.982;2022-09-01T06:59:50;5.07;;;4.73;;
8371;SDS011;4223;48.724;8.982;2022-09-01T07:02:19;4.47;;;4.27;;
8371;SDS011;4223;48.724;8.982;2022-09-01T07:04:47;4.17;;;4.00;;
8371;SDS011;4223;48.724;8.982;2022-09-01T07:07:14;4.27;;;4.00;;
8371;SDS011;4223;48.724;8.982;2022-09-01T07:09:41;6.93;;;5.67;;
8371;SDS011;4223;48.724;8.982;2022-09-01T07:12:08;3.77;;;3.63;;
8371;SDS011;4223;48.724;8.982;2022-09-01T07:14:35;3.90;;;3.60;;
8371;SDS011;4223;48.724;8.982;2022-09-01T07:17:01;4.27;;;4.07;;
8371;SDS011;4223;48.724;8.982;2022-09-01T07:19:30;3.70;;;3.40;;
8371;SDS011;4223;48.724;8.982;2022-09-01T07:21:59;4.13;;;3.93;;
8371;SDS011;4223;48.724;8.982;2022-09-01T07:24:26;8.43;;;4.07;;
8371;SDS011;4223;48.724;8.982;2022-09-01T07:26:53;3.20;;;3.10;;
8371;SDS011;4223;48.724;8.982;2022-09-01T07:29:20;3.10;;;2.97;;
8371;SDS011;4223;48.724;8.982;2022-09-01T07:31:49;6.93;;;4.43;;
8371;SDS011;4223;48.724;8.982;2022-09-01T07:34:19;3.30;;;3.20;;
8371;SDS011;4223;48.724;8.982;2022-09-01T07:36:48;3.70;;;3.53;;
8371;SDS011;4223;48.724;8.982;2022-09-01T07:39:16;2.50;;;2.40;;
8371;SDS011;4223;48.724;8.982;2022-09-01T07:41:43;2.37;;;2.27;;
8371;SDS011;4223;48.724;8.982;2022-09-01T07:44:10;11.20;;;2.60;;
8371;SDS011;4223;48.724;8.982;2022-09-01T07:46:37;2.93;;;2.73;;
8371;SDS011;4223;48.724;8.982;2022-09-01T07:49:05;2.47;;;2.37;;
8371;SDS011;4223;48.724;8.982;2022-09-01T07:51:32;2.27;;;2.17;;
8371;SDS011;4223;48.724;8.982;2022-09-01T07:54:01;3.37;;;3.13;;
8371;SDS011;4223;48.724;8.982;2022-09-01T07:56:28;1.73;;;1.73;;
8371;SDS011;4223;48.724;8.982;2022-09-01T07:58:55;2.37;;;2.27;;
8371;SDS011;4223;48.724;8.982;2022-09-01T08:01:24;2.90;;;2.80;;
8371;SDS011;4223;48.724;8.982;2022-09-01T08:03:52;2.57;;;2.47;;
8371;SDS011;4223;48.724;8.982;2022-09-01T08:06:21;2.57;;;2.47;;
8371;SDS011;4223;48.724;8.982;2022-09-01T08:08:50;1.53;;;1.53;;
8371;SDS011;4223;48.724;8.982;2022-09-01T08:11:20;1.97;;;1.97;;
8371;SDS011;4223;48.724;8.982;2022-09-01T08:13:49;2.57;;;2.47;;
8371;SDS011;4223;48.724;8.982;2022-09-01T08:16:16;3.03;;;2.50;;
8371;SDS011;4223;48.724;8.982;2022-09-01T08:18:44;1.63;;;1.63;;
8371;SDS011;4223;48.724;8.982;2022-09-01T08:21:12;2.07;;;2.03;;
8371;SDS011;4223;48.724;8.982;2022-09-01T08:23:40;2.37;;;2.27;;
8371;SDS011;4223;48.724;8.982;2022-09-01T08:26:07;1.77;;;1.77;;
8371;SDS011;4223;48.724;8.982;2022-09-01T08:28:38;2.57;;;2.47;;
8371;SDS011;4223;48.724;8.982;2022-09-01T08:31:05;1.73;;;1.67;;
8371;SDS011;4223;48.724;8.982;2022-09-01T08:33:34;2.10;;;2.07;;
8371;SDS011;4223;48.724;8.982;2022-09-01T08:36:01;2.37;;;2.27;;
8371;SDS011;4223;48.724;8.982;2022-09-01T08:38:29;3.03;;;2.57;;
8371;SDS011;4223;48.724;8.982;2022-09-01T08:40:56;1.73;;;1.73;;
8371;SDS011;4223;48.724;8.982;2022-09-01T08:43:28;2.40;;;2.30;;
8371;SDS011;4223;48.724;8.982;2022-09-01T08:46:05;3.00;;;2.63;;
8371;SDS011;4223;48.724;8.982;2022-09-01T08:48:38;2.50;;;2.40;;
8371;SDS011;4223;48.724;8.982;2022-09-01T08:51:09;2.60;;;2.50;;
8371;SDS011;4223;48.724;8.982;2022-09-01T08:53:41;2.60;;;2.50;;
8371;SDS011;4223;48.724;8.982;2022-09-01T08:56:12;1.97;;;1.97;;
8371;SDS011;4223;48.724;8.982;2022-09-01T08:58:42;2.27;;;2.17;;
8371;SDS011;4223;48.724;8.982;2022-09-01T09:01:14;3.53;;;3.23;;
8371;SDS011;4223;48.724;8.982;2022-09-01T09:03:57;3.47;;;2.83;;
8371;SDS011;4223;48.724;8.982;2022-09-01T09:06:35;2.43;;;2.33;;
8371;SDS011;4223;48.724;8.982;2022-09-01T09:09:09;3.07;;;2.87;;
8371;SDS011;4223;48.724;8.982;2022-09-01T09:11:45;1.50;;;1.50;;
8371;SDS011;4223;48.724;8.982;2022-09-01T09:14:46;1.93;;;1.83;;
8371;SDS011;4223;48.724;8.982;2022-09-01T09:17:24;1.93;;;1.90;;
8371;SDS011;4223;48.724;8.982;2022-09-01T09:19:55;3.23;;;3.03;;
8371;SDS011;4223;48.724;8.982;2022-09-01T09:22:22;1.83;;;1.70;;
8371;SDS011;4223;48.724;8.982;2022-09-01T09:24:49;2.30;;;2.20;;
8371;SDS011;4223;48.724;8.982;2022-09-01T09:27:20;1.77;;;1.67;;
8371;SDS011;4223;48.724;8.982;2022-09-01T09:29:50;2.90;;;2.77;;
8371;SDS011;4223;48.724;8.982;2022-09-01T09:32:18;1.70;;;1.70;;
8371;SDS011;4223;48.724;8.982;2022-09-01T09:34:48;2.37;;;2.27;;
8371;SDS011;4223;48.724;8.982;2022-09-01T09:37:18;2.57;;;2.47;;
8371;SDS011;4223;48.724;8.982;2022-09-01T09:40:00;1.80;;;1.70;;
8371;SDS011;4223;48.724;8.982;2022-09-01T09:42:32;2.83;;;2.63;;
8371;SDS011;4223;48.724;8.982;2022-09-01T09:45:00;1.80;;;1.80;;
8371;SDS011;4223;48.724;8.982;2022-09-01T09:47:35;2.23;;;2.13;;
8371;SDS011;4223;48.724;8.982;2022-09-01T09:50:12;1.27;;;1.27;;
8371;SDS011;4223;48.724;8.982;2022-09-01T09:52:44;1.90;;;1.80;;
8371;SDS011;4223;48.724;8.982;2022-09-01T09:55:19;2.20;;;1.80;;
8371;SDS011;4223;48.724;8.982;2022-09-01T09:57:48;1.97;;;1.83;;
8371;SDS011;4223;48.724;8.982;2022-09-01T10:00:20;1.30;;;1.30;;
8371;SDS011;4223;48.724;8.982;2022-09-01T10:02:53;1.00;;;1.00;;
8371;SDS011;4223;48.724;8.982;2022-09-01T10:05:25;3.67;;;1.73;;
8371;SDS011;4223;48.724;8.982;2022-09-01T10:08:08;2.10;;;2.00;;
8371;SDS011;4223;48.724;8.982;2022-09-01T10:10:40;1.60;;;1.60;;
8371;SDS011;4223;48.724;8.982;2022-09-01T10:13:10;1.27;;;1.27;;
8371;SDS011;4223;48.724;8.982;2022-09-01T10:15:39;1.70;;;1.60;;
8371;SDS011;4223;48.724;8.982;2022-09-01T10:18:09;1.30;;;1.30;;
8371;SDS011;4223;48.724;8.982;2022-09-01T10:20:43;1.97;;;1.77;;
8371;SDS011;4223;48.724;8.982;2022-09-01T10:23:14;2.03;;;1.40;;
8371;SDS011;4223;48.724;8.982;2022-09-01T10:25:41;1.40;;;1.40;;
8371;SDS011;4223;48.724;8.982;2022-09-01T10:28:10;1.43;;;1.43;;
8371;SDS011;4223;48.724;8.982;2022-09-01T10:30:40;1.50;;;1.40;;
8371;SDS011;4223;48.724;8.982;2022-09-01T10:33:10;1.50;;;1.50;;
8371;SDS011;4223;48.724;8.982;2022-09-01T10:35:40;1.57;;;1.50;;
8371;SDS011;4223;48.724;8.982;2022-09-01T10:38:14;1.57;;;1.47;;
8371;SDS011;4223;48.724;8.982;2022-09-01T10:40:44;1.90;;;1.80;;
8371;SDS011;4223;48.724;8.982;2022-09-01T10:43:26;1.53;;;1.53;;
8371;SDS011;4223;48.724;8.982;2022-09-01T10:45:59;2.53;;;2.40;;
8371;SDS011;4223;48.724;8.982;2022-09-01T10:48:32;1.43;;;1.43;;
8371;SDS011;4223;48.724;8.982;2022-09-01T10:54:06;1.77;;;1.67;;
8371;SDS011;4223;48.724;8.982;2022-09-01T10:56:37;2.37;;;1.47;;
8371;SDS011;4223;48.724;8.982;2022-09-01T10:59:10;1.07;;;1.07;;
8371;SDS011;4223;48.724;8.982;2022-09-01T11:02:07;1.27;;;1.27;;
8371;SDS011;4223;48.724;8.982;2022-09-01T11:07:39;1.23;;;1.23;;
8371;SDS011;4223;48.724;8.982;2022-09-01T11:10:21;1.00;;;1.00;;
8371;SDS011;4223;48.724;8.982;2022-09-01T11:16:26;1.87;;;1.33;;
8371;SDS011;4223;48.724;8.982;2022-09-01T11:22:10;1.43;;;1.43;;
8371;SDS011;4223;48.724;8.982;2022-09-01T11:24:49;1.17;;;1.17;;
8371;SDS011;4223;48.724;8.982;2022-09-01T11:30:23;1.37;;;1.37;;
8371;SDS011;4223;48.724;8.982;2022-09-01T11:33:02;1.47;;;1.47;;
8371;SDS011;4223;48.724;8.982;2022-09-01T11:35:37;1.13;;;1.13;;
8371;SDS011;4223;48.724;8.982;2022-09-01T11:38:04;0.90;;;0.90;;
8371;SDS011;4223;48.724;8.982;2022-09-01T11:40:33;1.60;;;1.50;;
8371;SDS011;4223;48.724;8.982;2022-09-01T11:43:03;1.00;;;1.00;;
8371;SDS011;4223;48.724;8.982;2022-09-01T11:45:35;0.97;;;0.97;;
8371;SDS011;4223;48.724;8.982;2022-09-01T11:48:09;1.30;;;1.30;;
8371;SDS011;4223;48.724;8.982;2022-09-01T11:50:39;0.87;;;0.87;;
8371;SDS011;4223;48.724;8.982;2022-09-01T11:53:07;1.50;;;1.50;;
8371;SDS011;4223;48.724;8.982;2022-09-01T11:55:38;1.17;;;1.17;;
8371;SDS011;4223;48.724;8.982;2022-09-01T11:58:09;0.93;;;0.93;;
8371;SDS011;4223;48.724;8.982;2022-09-01T12:00:38;0.50;;;0.50;;
8371;SDS011;4223;48.724;8.982;2022-09-01T12:03:18;1.10;;;1.10;;
8371;SDS011;4223;48.724;8.982;2022-09-01T12:05:46;1.30;;;1.30;;
8371;SDS011;4223;48.724;8.982;2022-09-01T12:08:23;0.93;;;0.93;;
8371;SDS011;4223;48.724;8.982;2022-09-01T12:10:59;1.20;;;1.20;;
8371;SDS011;4223;48.724;8.982;2022-09-01T12:13:31;1.73;;;1.50;;
8371;SDS011;4223;48.724;8.982;2022-09-01T12:15:59;1.07;;;1.07;;
8371;SDS011;4223;48.724;8.982;2022-09-01T12:18:28;1.03;;;1.03;;
8371;SDS011;4223;48.724;8.982;2022-09-01T12:20:57;0.80;;;0.80;;
8371;SDS011;4223;48.724;8.982;2022-09-01T12:23:26;1.20;;;1.20;;
8371;SDS011;4223;48.724;8.982;2022-09-01T12:25:55;1.03;;;1.03;;
8371;SDS011;4223;48.724;8.982;2022-09-01T12:28:24;0.97;;;0.97;;
8371;SDS011;4223;48.724;8.982;2022-09-01T12:30:56;0.67;;;0.67;;
8371;SDS011;4223;48.724;8.982;2022-09-01T12:33:24;0.90;;;0.90;;
8371;SDS011;4223;48.724;8.982;2022-09-01T12:38:45;0.60;;;0.60;;
8371;SDS011;4223;48.724;8.982;2022-09-01T12:41:22;1.07;;;1.07;;
8371;SDS011;4223;48.724;8.982;2022-09-01T12:43:50;1.37;;;1.37;;
8371;SDS011;4223;48.724;8.982;2022-09-01T12:49:16;1.10;;;1.10;;
8371;SDS011;4223;48.724;8.982;2022-09-01T12:51:44;1.03;;;1.03;;
8371;SDS011;4223;48.724;8.982;2022-09-01T12:54:11;1.33;;;1.30;;
8371;SDS011;4223;48.724;8.982;2022-09-01T12:56:39;1.00;;;1.00;;
8371;SDS011;4223;48.724;8.982;2022-09-01T12:59:13;1.27;;;1.10;;
8371;SDS011;4223;48.724;8.982;2022-09-01T13:01:47;1.38;;;1.38;;
8371;SDS011;4223;48.724;8.982;2022-09-01T13:04:22;1.00;;;1.00;;
8371;SDS011;4223;48.724;8.982;2022-09-01T13:06:51;1.13;;;1.13;;
8371;SDS011;4223;48.724;8.982;2022-09-01T13:09:20;1.60;;;1.60;;
8371;SDS011;4223;48.724;8.982;2022-09-01T13:11:47;0.98;;;0.98;;
8371;SDS011;4223;48.724;8.982;2022-09-01T13:14:15;1.27;;;1.27;;
8371;SDS011;4223;48.724;8.982;2022-09-01T13:16:43;0.80;;;0.80;;
8371;SDS011;4223;48.724;8.982;2022-09-01T13:19:11;0.80;;;0.80;;
8371;SDS011;4223;48.724;8.982;2022-09-01T13:21:38;1.23;;;1.23;;
8371;SDS011;4223;48.724;8.982;2022-09-01T13:24:05;0.98;;;0.98;;
8371;SDS011;4223;48.724;8.982;2022-09-01T13:26:33;1.10;;;1.10;;
8371;SDS011;4223;48.724;8.982;2022-09-01T13:29:00;1.10;;;1.10;;
8371;SDS011;4223;48.724;8.982;2022-09-01T13:31:27;0.97;;;0.97;;
8371;SDS011;4223;48.724;8.982;2022-09-01T13:33:55;1.00;;;1.00;;
8371;SDS011;4223;48.724;8.982;2022-09-01T13:36:24;3.80;;;1.47;;
8371;SDS011;4223;48.724;8.982;2022-09-01T13:38:51;1.20;;;1.20;;
8371;SDS011;4223;48.724;8.982;2022-09-01T13:41:18;1.20;;;1.20;;
8371;SDS011;4223;48.724;8.982;2022-09-01T13:43:44;1.03;;;1.03;;
8371;SDS011;4223;48.724;8.982;2022-09-01T13:46:12;1.60;;;1.57;;
8371;SDS011;4223;48.724;8.982;2022-09-01T13:48:39;1.73;;;1.73;;
8371;SDS011;4223;48.724;8.982;2022-09-01T13:51:06;1.17;;;1.17;;
8371;SDS011;4223;48.724;8.982;2022-09-01T13:53:35;1.50;;;1.40;;
8371;SDS011;4223;48.724;8.982;2022-09-01T13:56:02;1.63;;;1.63;;
8371;SDS011;4223;48.724;8.982;2022-09-01T13:58:30;1.67;;;1.57;;
8371;SDS011;4223;48.724;8.982;2022-09-01T14:00:57;1.17;;;1.17;;
8371;SDS011;4223;48.724;8.982;2022-09-01T14:03:24;1.30;;;0.90;;
8371;SDS011;4223;48.724;8.982;2022-09-01T14:05:51;0.80;;;0.80;;
8371;SDS011;4223;48.724;8.982;2022-09-01T14:08:18;0.97;;;0.97;;
8371;SDS011;4223;48.724;8.982;2022-09-01T14:10:49;1.00;;;1.00;;
8371;SDS011;4223;48.724;8.982;2022-09-01T14:13:17;0.90;;;0.90;;
8371;SDS011;4223;48.724;8.982;2022-09-01T14:15:46;0.77;;;0.77;;
8371;SDS011;4223;48.724;8.982;2022-09-01T14:18:13;1.00;;;1.00;;
8371;SDS011;4223;48.724;8.982;2022-09-01T14:20:41;1.17;;;1.17;;
8371;SDS011;4223;48.724;8.982;2022-09-01T14:23:10;1.20;;;1.20;;
8371;SDS011;4223;48.724;8.982;2022-09-01T14:25:40;0.70;;;0.70;;
8371;SDS011;4223;48.724;8.982;2022-09-01T14:28:09;0.83;;;0.83;;
8371;SDS011;4223;48.724;8.982;2022-09-01T14:30:39;0.70;;;0.70;;
8371;SDS011;4223;48.724;8.982;2022-09-01T14:33:07;1.00;;;1.00;;
8371;SDS011;4223;48.724;8.982;2022-09-01T14:35:37;1.17;;;1.17;;
8371;SDS011;4223;48.724;8.982;2022-09-01T14:38:05;1.23;;;1.23;;
8371;SDS011;4223;48.724;8.982;2022-09-01T14:40:33;1.40;;;1.40;;
8371;SDS011;4223;48.724;8.982;2022-09-01T14:43:01;1.20;;;1.20;;
8371;SDS011;4223;48.724;8.982;2022-09-01T14:45:30;5.00;;;1.37;;
8371;SDS011;4223;48.724;8.982;2022-09-01T14:47:57;1.90;;;1.57;;
8371;SDS011;4223;48.724;8.982;2022-09-01T14:50:25;1.60;;;1.50;;
8371;SDS011;4223;48.724;8.982;2022-09-01T14:52:56;2.33;;;2.23;;
8371;SDS011;4223;48.724;8.982;2022-09-01T14:55:25;1.03;;;1.03;;
8371;SDS011;4223;48.724;8.982;2022-09-01T14:57:54;1.37;;;1.33;;
8371;SDS011;4223;48.724;8.982;2022-09-01T15:00:22;1.07;;;1.07;;
8371;SDS011;4223;48.724;8.982;2022-09-01T15:02:52;1.30;;;1.30;;
8371;SDS011;4223;48.724;8.982;2022-09-01T15:05:20;1.63;;;1.53;;
8371;SDS011;4223;48.724;8.982;2022-09-01T15:07:48;0.97;;;0.97;;
8371;SDS011;4223;48.724;8.982;2022-09-01T15:10:16;1.60;;;1.17;;
8371;SDS011;4223;48.724;8.982;2022-09-01T15:12:45;0.80;;;0.80;;
8371;SDS011;4223;48.724;8.982;2022-09-01T15:15:14;1.63;;;1.63;;
8371;SDS011;4223;48.724;8.982;2022-09-01T15:17:41;1.03;;;1.03;;
8371;SDS011;4223;48.724;8.982;2022-09-01T15:20:10;1.10;;;1.10;;
8371;SDS011;4223;48.724;8.982;2022-09-01T15:22:54;1.40;;;1.40;;
8371;SDS011;4223;48.724;8.982;2022-09-01T15:25:21;1.50;;;1.50;;
8371;SDS011;4223;48.724;8.982;2022-09-01T15:27:48;0.90;;;0.90;;
8371;SDS011;4223;48.724;8.982;2022-09-01T15:30:15;1.43;;;1.37;;
8371;SDS011;4223;48.724;8.982;2022-09-01T15:32:43;0.97;;;0.97;;
8371;SDS011;4223;48.724;8.982;2022-09-01T15:35:13;2.07;;;1.10;;
8371;SDS011;4223;48.724;8.982;2022-09-01T15:37:40;1.00;;;1.00;;
8371;SDS011;4223;48.724;8.982;2022-09-01T15:40:08;1.20;;;1.10;;
8371;SDS011;4223;48.724;8.982;2022-09-01T15:42:35;19.73;;;1.83;;
8371;SDS011;4223;48.724;8.982;2022-09-01T15:45:03;0.93;;;0.93;;
8371;SDS011;4223;48.724;8.982;2022-09-01T15:47:32;0.70;;;0.70;;
8371;SDS011;4223;48.724;8.982;2022-09-01T15:49:59;0.70;;;0.70;;
8371;SDS011;4223;48.724;8.982;2022-09-01T15:52:29;0.83;;;0.83;;